Terminal Aerodrome Forecast
Issued by NWS

Home | Current Version | Previous Version | Text Only | Print | Product List | Glossary On
Versions: 1 2 3 4 5 6 7 8 9 10 11 12 13 14 15 16 17 18 19 20 21 22 23 24 25 26
000
FTUS41 KOKX 240500 RRA
TAFSWF
TAF
KSWF 240542Z 2406/2512 VRB05KT P6SM BKN035
     FM240700 11005KT P6SM -SHRA BKN015
     FM240800 14011KT 2SM RA BR OVC005 WS020/16040KT
     FM241100 16011G16KT 2SM RA BR OVC004 WS020/17050KT
     FM241400 18012G21KT 3SM SHRA BR OVC006 WS020/21040KT
     FM241600 20012G21KT 6SM BR SCT008 BKN015
     FM241900 21015G28KT P6SM SCT015 BKN035
     FM250200 21013G25KT P6SM BKN015 BKN035
     FM250900 25010KT P6SM SCT020 BKN100
      AMD NOT SKED=

USA.gov is the U.S. government's official web portal to all federal, state and local government web resources and services.